createdAt,value
2022-08-11T00:00:16.994Z,100530.52
2022-08-11T00:03:43.432Z,100529.60
2022-08-11T00:06:52.079Z,100521.73
2022-08-11T00:09:58.459Z,100509.47
2022-08-11T00:13:16.833Z,100511.39
2022-08-11T00:16:34.033Z,100508.84
2022-08-11T00:20:15.222Z,100504.38
2022-08-11T00:22:58.739Z,100494.66
2022-08-11T00:26:07.200Z,100498.30
2022-08-11T00:29:12.299Z,100498.59
2022-08-11T00:32:19.874Z,100490.66
2022-08-11T00:35:55.152Z,100484.87
2022-08-11T00:38:12.874Z,100493.73
2022-08-11T00:41:37.972Z,100494.59
2022-08-11T00:45:07.290Z,100485.41
2022-08-11T00:48:44.789Z,100480.38
2022-08-11T00:52:06.225Z,100478.16
2022-08-11T00:55:57.019Z,100485.01
2022-08-11T00:59:34.136Z,100480.31
2022-08-11T01:02:42.052Z,100493.91
2022-08-11T01:06:37.852Z,100486.73
2022-08-11T01:10:28.067Z,100490.95
2022-08-11T01:14:34.205Z,100499.35
2022-08-11T01:18:00.101Z,100491.02
2022-08-11T01:21:21.752Z,100498.30
2022-08-11T01:24:47.925Z,100501.37
2022-08-11T01:28:15.372Z,100494.75
2022-08-11T01:32:18.088Z,100501.13
2022-08-11T01:35:51.851Z,100506.78
2022-08-11T01:39:55.180Z,100496.50
2022-08-11T01:43:46.369Z,100487.94
2022-08-11T01:47:53.437Z,100516.34
2022-08-11T01:51:06.595Z,100493.66
2022-08-11T01:54:19.880Z,100475.15
2022-08-11T01:57:42.462Z,100474.98
2022-08-11T02:00:52.652Z,100441.04
2022-08-11T02:04:22.041Z,100455.72
2022-08-11T02:07:38.272Z,100465.58
2022-08-11T02:11:28.231Z,100450.53
2022-08-11T02:15:04.611Z,100462.20
2022-08-11T02:18:06.504Z,100469.91
2022-08-11T02:21:27.418Z,100477.67
2022-08-11T02:24:36.696Z,100477.14
2022-08-11T02:27:54.590Z,100483.33
2022-08-11T02:32:25.598Z,100488.02
2022-08-11T02:35:28.996Z,100494.95
2022-08-11T02:39:10.188Z,100496.28
2022-08-11T02:42:38.574Z,100494.89
2022-08-11T02:46:00.889Z,100493.50
2022-08-11T02:49:31.038Z,100493.34
2022-08-11T02:53:22.908Z,100485.11
2022-08-11T02:56:53.435Z,100486.03
2022-08-11T03:00:23.986Z,100491.35
2022-08-11T03:03:52.063Z,100496.73
2022-08-11T03:07:06.526Z,100497.42
2022-08-11T03:10:48.497Z,100497.42
2022-08-11T03:14:52.157Z,100495.84
2022-08-11T03:18:49.368Z,100512.03
2022-08-11T03:22:06.350Z,100499.84
2022-08-11T03:25:18.791Z,100500.98
2022-08-11T03:28:36.581Z,100502.77
2022-08-11T03:31:47.370Z,100498.14
2022-08-11T03:34:54.674Z,100499.59
2022-08-11T03:38:16.061Z,100500.84
2022-08-11T03:42:01.646Z,100505.07
2022-08-11T03:45:11.247Z,100511.64
2022-08-11T03:48:29.730Z,100502.66
2022-08-11T03:51:52.105Z,100514.85
2022-08-11T03:55:39.376Z,100517.08
2022-08-11T03:59:24.782Z,100507.91
2022-08-11T04:02:49.526Z,100510.43
2022-08-11T04:06:36.817Z,100516.09
2022-08-11T04:10:31.660Z,100519.79
2022-08-11T04:14:07.570Z,100523.77
2022-08-11T04:17:43.803Z,100530.25
2022-08-11T04:21:15.844Z,100535.84
2022-08-11T04:24:54.540Z,100533.66
2022-08-11T04:28:49.694Z,100544.82
2022-08-11T04:32:23.883Z,100543.31
2022-08-11T04:36:16.162Z,100552.20
2022-08-11T05:02:23.911Z,100559.13
2022-08-11T05:06:05.061Z,100557.52
2022-08-11T05:09:55.502Z,100562.35
2022-08-11T05:13:32.511Z,100573.69
2022-08-11T05:17:03.110Z,100574.38
2022-08-11T05:20:27.801Z,100569.69
2022-08-11T05:23:51.510Z,100571.98
2022-08-11T05:27:20.762Z,100576.59
2022-08-11T05:30:45.007Z,100584.61
2022-08-11T05:34:22.905Z,100568.11
2022-08-11T05:37:48.417Z,100566.94
2022-08-11T05:41:21.662Z,100569.17
2022-08-11T05:44:53.002Z,100571.94
2022-08-11T05:48:20.526Z,100562.66
2022-08-11T05:51:52.301Z,100596.48
2022-08-11T05:55:09.015Z,100586.02
2022-08-11T05:58:20.692Z,100586.16
2022-08-11T06:01:32.580Z,100577.41
2022-08-11T06:04:39.400Z,100567.73
2022-08-11T06:07:48.810Z,100570.62
2022-08-11T06:10:58.779Z,100567.56
2022-08-11T06:14:06.088Z,100568.16
2022-08-11T06:17:08.713Z,100555.04
2022-08-11T06:20:25.236Z,100567.72
2022-08-11T06:23:31.982Z,100560.59
2022-08-11T06:26:55.119Z,100565.80
2022-08-11T06:29:54.474Z,100566.14
2022-08-11T06:36:52.150Z,100561.97
2022-08-11T06:40:17.341Z,100562.56
2022-08-11T06:43:41.994Z,100570.41
2022-08-11T06:46:51.901Z,100569.58
2022-08-11T06:50:20.346Z,100566.30
2022-08-11T06:53:26.094Z,100566.05
2022-08-11T07:00:23.389Z,100564.16
2022-08-11T07:03:53.965Z,100568.44
2022-08-11T07:07:51.594Z,100571.60
2022-08-11T07:11:47.208Z,100563.58
2022-08-11T07:15:12.661Z,100567.34
2022-08-11T07:18:38.602Z,100568.56
2022-08-11T07:22:04.253Z,100567.48
2022-08-11T07:25:36.734Z,100572.83
2022-08-11T07:29:01.507Z,100577.61
2022-08-11T07:32:11.452Z,100569.16
2022-08-11T07:35:29.877Z,100564.62
2022-08-11T07:38:53.513Z,100571.63
2022-08-11T07:42:01.080Z,100573.34
2022-08-11T07:45:25.030Z,100581.21
2022-08-11T07:48:49.706Z,100583.22
2022-08-11T07:52:15.108Z,100577.41
2022-08-11T07:55:50.161Z,100571.88
2022-08-11T07:59:04.265Z,100568.69
2022-08-11T08:02:23.303Z,100569.42
2022-08-11T08:05:48.932Z,100575.75
2022-08-11T08:09:13.423Z,100564.14
2022-08-11T08:12:37.861Z,100566.81
2022-08-11T08:16:00.650Z,100568.80
2022-08-11T08:19:08.404Z,100560.98
2022-08-11T08:22:38.012Z,100565.27
2022-08-11T08:25:25.436Z,100562.25
2022-08-11T08:28:33.495Z,100566.25
2022-08-11T08:31:42.044Z,100567.67
2022-08-11T08:34:54.806Z,100569.08
2022-08-11T08:38:00.603Z,100562.06
2022-08-11T08:41:13.151Z,100571.89
2022-08-11T08:44:43.459Z,100566.30
2022-08-11T08:47:42.678Z,100569.11
2022-08-11T08:50:42.628Z,100574.77
2022-08-11T08:53:56.440Z,100569.41
2022-08-11T08:57:01.360Z,100573.91
2022-08-11T09:00:07.212Z,100572.22
2022-08-11T09:03:39.878Z,100581.20
2022-08-11T09:06:27.392Z,100580.36
2022-08-11T09:09:37.731Z,100584.53
2022-08-11T09:12:50.991Z,100587.50
2022-08-11T09:15:57.845Z,100574.55
2022-08-11T09:19:03.592Z,100575.38
2022-08-11T09:22:28.052Z,100575.13
2022-08-11T09:25:52.559Z,100577.13
2022-08-11T09:29:01.997Z,100583.34
2022-08-11T09:32:07.882Z,100589.57
2022-08-11T09:35:15.530Z,100593.55
2022-08-11T09:38:39.825Z,100597.22
2022-08-11T09:42:01.730Z,100596.98
2022-08-11T09:45:00.930Z,100604.04
2022-08-11T09:48:08.897Z,100601.25
2022-08-11T09:51:15.445Z,100591.11
2022-08-11T09:54:20.287Z,100593.94
2022-08-11T09:57:44.028Z,100607.44
2022-08-11T10:01:00.890Z,100609.38
2022-08-11T10:04:08.996Z,100613.59
2022-08-11T10:07:15.978Z,100618.95
2022-08-11T10:10:22.859Z,100625.72
2022-08-11T10:14:10.067Z,100628.23
2022-08-11T10:17:19.014Z,100624.30
2022-08-11T10:20:33.134Z,100629.36
2022-08-11T10:24:05.574Z,100631.34
2022-08-11T10:27:13.241Z,100630.79
2022-08-11T10:30:42.446Z,100622.88
2022-08-11T10:34:08.855Z,100627.69
2022-08-11T10:37:16.000Z,100633.86
2022-08-11T10:40:24.186Z,100633.31
2022-08-11T10:44:02.498Z,100631.61
2022-08-11T10:46:55.479Z,100624.86
2022-08-11T10:50:20.496Z,100630.22
2022-08-11T10:53:45.504Z,100629.91
2022-08-11T10:57:12.620Z,100636.97
2022-08-11T11:00:24.613Z,100643.72
2022-08-11T11:03:47.200Z,100640.63
2022-08-11T11:07:21.700Z,100640.37
2022-08-11T11:10:29.920Z,100634.73
2022-08-11T11:13:55.397Z,100634.70
2022-08-11T11:17:22.492Z,100645.67
2022-08-11T11:20:36.781Z,100642.88
2022-08-11T11:24:03.519Z,100638.35
2022-08-11T11:27:34.274Z,100643.42
2022-08-11T11:30:41.231Z,100638.35
2022-08-11T11:34:12.109Z,100638.06
2022-08-11T11:37:12.886Z,100635.83
2022-08-11T11:40:31.667Z,100635.27
2022-08-11T11:43:36.880Z,100630.20
2022-08-11T11:46:43.752Z,100636.11
2022-08-11T11:49:51.422Z,100641.16
2022-08-11T11:52:58.942Z,100648.22
2022-08-11T11:56:08.175Z,100639.77
2022-08-11T11:59:34.281Z,100635.47
2022-08-11T12:02:41.827Z,100626.83
2022-08-11T12:05:49.991Z,100626.83
2022-08-11T12:08:56.300Z,100627.89
2022-08-11T12:12:22.778Z,100625.34
2022-08-11T12:16:04.280Z,100625.34
2022-08-11T12:18:39.444Z,100625.95
2022-08-11T12:21:45.316Z,100633.56
2022-08-11T12:25:12.353Z,100633.56
2022-08-11T12:28:20.063Z,100635.02
2022-08-11T12:31:28.822Z,100635.35
2022-08-11T12:34:35.458Z,100630.59
2022-08-11T12:37:47.896Z,100631.77
2022-08-11T12:41:15.856Z,100616.30
2022-08-11T12:44:44.801Z,100635.45
2022-08-11T12:48:59.026Z,100625.33
2022-08-11T12:52:06.784Z,100621.68
2022-08-11T12:55:17.008Z,100618.56
2022-08-11T12:58:24.839Z,100628.43
2022-08-11T13:01:48.253Z,100622.25
2022-08-11T13:05:07.420Z,100626.22
2022-08-11T13:08:16.865Z,100616.63
2022-08-11T13:11:55.788Z,100620.28
2022-08-11T13:14:48.776Z,100620.28
2022-08-11T13:17:55.935Z,100609.83
2022-08-11T13:21:09.991Z,100614.31
2022-08-11T13:24:16.483Z,100607.53
2022-08-11T13:27:22.104Z,100606.94
2022-08-11T13:30:48.458Z,100608.03
2022-08-11T13:37:14.351Z,100596.20
2022-08-11T13:40:33.155Z,100602.13
2022-08-11T13:43:31.375Z,100602.13
2022-08-11T13:46:38.302Z,100590.03
2022-08-11T13:49:50.513Z,100592.58
2022-08-11T13:52:58.270Z,100583.84
2022-08-11T13:56:05.650Z,100578.78
2022-08-11T13:59:13.232Z,100576.79
2022-08-11T14:02:28.320Z,100568.34
2022-08-11T14:05:36.320Z,100568.34
2022-08-11T14:08:49.394Z,100565.52
2022-08-11T14:12:23.488Z,100569.21
2022-08-11T14:15:28.763Z,100571.20
2022-08-11T14:18:43.512Z,100566.13
2022-08-11T14:22:10.177Z,100571.52
2022-08-11T14:25:16.106Z,100558.00
2022-08-11T14:28:31.729Z,100556.58
2022-08-11T14:31:32.848Z,100552.65
2022-08-11T14:34:41.513Z,100559.70
2022-08-11T14:37:49.157Z,100545.40
2022-08-11T14:41:12.432Z,100544.28
2022-08-11T14:44:36.687Z,100547.97
2022-08-11T14:47:54.153Z,100535.62
2022-08-11T14:50:59.408Z,100539.88
2022-08-11T14:54:08.064Z,100527.77
2022-08-11T14:57:16.868Z,100526.62
2022-08-11T15:00:25.077Z,100514.25
2022-08-11T15:03:31.188Z,100507.52
2022-08-11T15:06:39.669Z,100506.70
2022-08-11T15:10:11.757Z,100498.81
2022-08-11T15:12:53.977Z,100497.70
2022-08-11T15:16:18.761Z,100497.17
2022-08-11T15:19:23.556Z,100492.69
2022-08-11T15:22:47.609Z,100489.86
2022-08-11T15:25:53.332Z,100485.38
2022-08-11T15:29:23.544Z,100486.20
2022-08-11T15:32:46.332Z,100480.86
2022-08-11T15:36:10.318Z,100469.08
2022-08-11T15:39:45.410Z,100477.77
2022-08-11T15:43:14.473Z,100484.52
2022-08-11T15:46:33.138Z,100474.95
2022-08-11T15:50:11.533Z,100489.31
2022-08-11T15:53:10.341Z,100499.69
2022-08-11T15:56:15.583Z,100506.17
2022-08-11T15:59:41.700Z,100508.41
2022-08-11T16:02:56.718Z,100517.41
2022-08-11T16:06:03.590Z,100516.85
2022-08-11T16:09:17.990Z,100526.39
2022-08-11T16:12:23.959Z,100528.06
2022-08-11T16:15:46.149Z,100531.15
2022-08-11T16:19:04.137Z,100531.71
2022-08-11T16:22:14.006Z,100539.32
2022-08-11T16:27:03.732Z,100539.30
2022-08-11T16:28:28.213Z,100537.31
2022-08-11T16:31:34.901Z,100532.26
2022-08-11T16:34:59.166Z,100544.91
2022-08-11T16:38:24.367Z,100550.53
2022-08-11T16:41:52.301Z,100545.41
2022-08-11T16:45:17.433Z,100547.11
2022-08-11T16:48:33.413Z,100545.95
2022-08-11T16:51:37.735Z,100551.55
2022-08-11T16:54:47.306Z,100549.86
2022-08-11T16:58:10.680Z,100548.98
2022-08-11T17:01:16.163Z,100554.54
2022-08-11T17:05:02.480Z,100551.44
2022-08-11T17:08:26.740Z,100555.62
2022-08-11T17:11:49.675Z,100551.63
2022-08-11T17:15:10.040Z,100556.89
2022-08-11T17:18:17.411Z,100553.47
2022-08-11T17:21:34.143Z,100555.93
2022-08-11T17:24:41.340Z,100560.64
2022-08-11T17:27:46.321Z,100565.08
2022-08-11T17:31:10.791Z,100568.11
2022-08-11T17:34:34.645Z,100567.78
2022-08-11T17:37:40.074Z,100573.61
2022-08-11T17:40:49.778Z,100580.27
2022-08-11T17:44:14.081Z,100584.97
2022-08-11T17:47:37.937Z,100590.78
2022-08-11T17:50:44.738Z,100590.73
2022-08-11T17:54:23.865Z,100594.88
2022-08-11T17:57:38.495Z,100591.47
2022-08-11T18:00:47.186Z,100599.50
2022-08-11T18:03:58.100Z,100599.97
2022-08-11T18:07:03.223Z,100607.22
2022-08-11T18:10:28.601Z,100611.90
2022-08-11T18:13:56.366Z,100619.64
2022-08-11T18:17:22.047Z,100606.65
2022-08-11T18:20:44.988Z,100608.78
2022-08-11T18:24:08.094Z,100610.38
2022-08-11T18:27:34.161Z,100610.58
2022-08-11T18:31:03.835Z,100606.88
2022-08-11T18:34:29.409Z,100602.61
2022-08-11T18:38:01.646Z,100597.25
2022-08-11T18:41:24.263Z,100596.61
2022-08-11T18:44:49.685Z,100599.39
2022-08-11T18:48:14.930Z,100590.12
2022-08-11T18:51:38.607Z,100587.58
2022-08-11T18:55:02.235Z,100586.72
2022-08-11T18:58:30.091Z,100579.45
2022-08-11T19:01:54.596Z,100577.19
2022-08-11T19:06:32.599Z,100579.39
2022-08-11T19:08:45.950Z,100573.26
2022-08-11T19:12:12.042Z,100566.27
2022-08-11T19:15:38.522Z,100562.34
2022-08-11T19:19:02.901Z,100565.14
2022-08-11T19:22:29.713Z,100561.78
2022-08-11T19:25:54.869Z,100571.58
2022-08-11T19:30:07.194Z,100568.47
2022-08-11T19:32:49.542Z,100564.84
2022-08-11T19:36:15.015Z,100557.54
2022-08-11T19:39:40.386Z,100563.70
2022-08-11T19:43:11.181Z,100567.59
2022-08-11T19:46:31.334Z,100565.63
2022-08-11T19:49:54.398Z,100561.38
2022-08-11T19:53:17.942Z,100567.72
2022-08-11T19:56:42.086Z,100563.45
2022-08-11T20:00:07.252Z,100568.42
2022-08-11T20:03:31.869Z,100561.36
2022-08-11T20:06:55.648Z,100565.73
2022-08-11T20:10:21.378Z,100559.80
2022-08-11T20:13:45.554Z,100555.55
2022-08-11T20:17:10.034Z,100559.35
2022-08-11T20:20:35.758Z,100561.23
2022-08-11T20:24:04.264Z,100562.55
2022-08-11T20:27:29.762Z,100558.53
2022-08-11T20:30:52.737Z,100561.56
2022-08-11T20:34:17.197Z,100557.30
2022-08-11T20:37:42.004Z,100557.53
2022-08-11T20:41:08.127Z,100556.66
2022-08-11T20:44:33.975Z,100552.63
2022-08-11T20:48:00.473Z,100555.92
2022-08-11T20:51:25.631Z,100557.83
2022-08-11T20:54:49.985Z,100560.85
2022-08-11T20:58:17.727Z,100561.36
2022-08-11T21:01:41.443Z,100558.80
2022-08-11T21:05:06.269Z,100559.62
2022-08-11T21:08:30.725Z,100556.22
2022-08-11T21:11:56.239Z,100558.73
2022-08-11T21:15:38.999Z,100557.88
2022-08-11T21:18:45.451Z,100554.48
2022-08-11T21:22:09.664Z,100551.41
2022-08-11T21:25:33.909Z,100556.98
2022-08-11T21:28:58.024Z,100562.83
2022-08-11T21:32:25.147Z,100570.06
2022-08-11T21:35:50.505Z,100572.28
2022-08-11T21:39:14.853Z,100570.34
2022-08-11T21:42:40.012Z,100557.18
2022-08-11T21:46:03.435Z,100562.48
2022-08-11T21:49:29.288Z,100556.29
2022-08-11T21:52:54.483Z,100554.00
2022-08-11T21:56:18.609Z,100559.05
2022-08-11T21:59:44.166Z,100567.94
2022-08-11T22:03:08.925Z,100569.58
2022-08-11T22:06:33.262Z,100568.69
2022-08-11T22:09:58.012Z,100565.84
2022-08-11T22:13:25.008Z,100565.55
2022-08-11T22:16:50.280Z,100573.67
2022-08-11T22:20:14.296Z,100573.92
2022-08-11T22:23:39.170Z,100564.98
2022-08-11T22:27:03.285Z,100570.81
2022-08-11T22:30:27.360Z,100567.73
2022-08-11T22:34:02.114Z,100561.01
2022-08-11T22:37:27.519Z,100556.82
2022-08-11T22:40:43.054Z,100554.82
2022-08-11T22:44:08.968Z,100553.14
2022-08-11T22:47:40.335Z,100550.06
2022-08-11T22:50:58.694Z,100547.81
2022-08-11T22:54:24.866Z,100548.66
2022-08-11T22:58:00.708Z,100544.48
2022-08-11T23:01:16.229Z,100550.60
2022-08-11T23:04:40.344Z,100546.70
2022-08-11T23:08:05.711Z,100554.25
2022-08-11T23:12:05.818Z,100553.68
2022-08-11T23:14:54.961Z,100557.61
2022-08-11T23:18:18.783Z,100554.03
2022-08-11T23:21:44.781Z,100554.64
2022-08-11T23:25:08.887Z,100553.52
2022-08-11T23:28:34.362Z,100561.11
2022-08-11T23:31:58.717Z,100554.41
2022-08-11T23:35:40.178Z,100553.08
2022-08-11T23:38:52.596Z,100548.32
2022-08-11T23:42:17.338Z,100553.11
2022-08-11T23:45:41.495Z,100543.09
2022-08-11T23:49:06.657Z,100547.02
2022-08-11T23:52:30.418Z,100547.09
2022-08-11T23:55:54.109Z,100551.02
2022-08-11T23:59:18.660Z,100551.30
